createdAt,value
2018-09-17T00:01:52.096Z,4.37
2018-09-17T00:04:20.890Z,3.90
2018-09-17T00:06:49.789Z,4.37
2018-09-17T00:09:18.548Z,4.00
2018-09-17T00:11:49.044Z,4.07
2018-09-17T00:14:17.787Z,3.60
2018-09-17T00:16:46.558Z,3.67
2018-09-17T00:19:15.292Z,3.73
2018-09-17T00:21:44.408Z,3.60
2018-09-17T00:24:13.220Z,3.20
2018-09-17T00:26:42.019Z,3.40
2018-09-17T00:29:11.020Z,4.40
2018-09-17T00:31:39.868Z,3.67
2018-09-17T00:34:08.678Z,3.50
2018-09-17T00:36:37.442Z,3.47
2018-09-17T00:39:09.634Z,3.23
2018-09-17T00:41:38.383Z,4.03
2018-09-17T00:44:07.182Z,3.33
2018-09-17T00:46:36.023Z,3.43
2018-09-17T00:49:05.321Z,3.33
2018-09-17T00:51:34.162Z,3.67
2018-09-17T00:54:02.983Z,3.53
2018-09-17T00:56:31.759Z,3.07
2018-09-17T00:59:00.992Z,3.70
2018-09-17T01:01:29.791Z,4.13
2018-09-17T01:03:58.551Z,3.70
2018-09-17T01:06:27.354Z,4.73
2018-09-17T01:08:56.122Z,4.10
2018-09-17T01:11:24.922Z,3.83
2018-09-17T01:13:53.721Z,3.63
2018-09-17T01:16:22.455Z,3.70
2018-09-17T01:18:51.295Z,4.03
2018-09-17T01:21:20.060Z,4.07
2018-09-17T01:23:48.826Z,4.00
2018-09-17T01:26:17.606Z,3.83
2018-09-17T01:28:46.737Z,4.30
2018-09-17T01:31:15.548Z,4.07
2018-09-17T01:33:44.324Z,4.10
2018-09-17T01:36:13.089Z,4.03
2018-09-17T01:38:41.935Z,3.80
2018-09-17T01:41:10.784Z,4.27
2018-09-17T01:43:39.612Z,4.13
2018-09-17T01:46:08.496Z,4.47
2018-09-17T01:48:37.422Z,4.27
2018-09-17T01:51:06.316Z,3.57
2018-09-17T01:53:35.092Z,4.00
2018-09-17T01:56:04.050Z,4.33
2018-09-17T01:58:32.911Z,4.57
2018-09-17T02:01:01.749Z,4.80
2018-09-17T02:03:30.540Z,4.53
2018-09-17T02:05:59.323Z,4.20
2018-09-17T02:08:28.858Z,5.47
2018-09-17T02:10:58.034Z,4.70
2018-09-17T02:13:27.470Z,4.47
2018-09-17T02:15:56.227Z,4.83
2018-09-17T02:18:25.019Z,5.03
2018-09-17T02:20:53.790Z,4.33
2018-09-17T02:23:22.590Z,5.03
2018-09-17T02:25:51.359Z,3.93
2018-09-17T02:28:20.124Z,4.40
2018-09-17T02:30:48.951Z,4.10
2018-09-17T02:33:17.732Z,4.07
2018-09-17T02:35:46.563Z,4.57
2018-09-17T02:38:15.389Z,3.80
2018-09-17T02:40:44.176Z,4.23
2018-09-17T02:43:13.007Z,4.73
2018-09-17T02:45:41.759Z,4.30
2018-09-17T02:48:10.971Z,4.73
2018-09-17T02:50:39.757Z,4.50
2018-09-17T02:53:08.506Z,4.70
2018-09-17T02:55:37.287Z,4.50
2018-09-17T02:58:06.075Z,5.17
2018-09-17T03:00:34.815Z,4.33
2018-09-17T03:03:03.576Z,4.80
2018-09-17T03:05:32.498Z,4.50
2018-09-17T03:08:01.297Z,4.50
2018-09-17T03:10:30.104Z,5.40
2018-09-17T03:12:58.893Z,4.27
2018-09-17T03:15:38.694Z,4.70
2018-09-17T03:18:07.463Z,4.50
2018-09-17T03:20:36.275Z,5.00
2018-09-17T03:23:05.141Z,5.20
2018-09-17T03:25:33.949Z,4.33
2018-09-17T03:28:02.766Z,4.63
2018-09-17T03:30:31.584Z,4.50
2018-09-17T03:33:00.349Z,4.80
2018-09-17T03:35:29.176Z,4.40
2018-09-17T03:38:05.465Z,4.30
2018-09-17T03:40:34.210Z,4.50
2018-09-17T03:43:02.972Z,4.07
2018-09-17T03:45:31.740Z,4.13
2018-09-17T03:48:00.615Z,4.20
2018-09-17T03:50:29.526Z,4.50
2018-09-17T03:52:58.475Z,4.67
2018-09-17T03:55:27.288Z,4.83
2018-09-17T03:57:56.110Z,4.73
2018-09-17T04:00:24.879Z,5.10
2018-09-17T04:02:53.715Z,5.00
2018-09-17T04:05:22.533Z,4.97
2018-09-17T04:07:51.350Z,5.87
2018-09-17T04:10:20.133Z,5.53
2018-09-17T04:12:48.930Z,4.60
2018-09-17T04:15:17.712Z,5.27
2018-09-17T04:17:46.494Z,5.60
2018-09-17T04:20:15.295Z,5.27
2018-09-17T04:22:44.090Z,5.50
2018-09-17T04:25:12.873Z,5.70
2018-09-17T04:27:41.698Z,5.80
2018-09-17T04:30:10.573Z,5.47
2018-09-17T04:32:39.427Z,5.43
2018-09-17T04:35:08.589Z,5.40
2018-09-17T04:37:38.895Z,5.60
2018-09-17T04:40:08.075Z,5.80
2018-09-17T04:42:38.112Z,4.83
2018-09-17T04:45:07.119Z,4.93
2018-09-17T04:47:36.319Z,4.83
2018-09-17T04:50:05.297Z,5.50
2018-09-17T04:52:34.136Z,5.43
2018-09-17T04:55:03.208Z,4.70
2018-09-17T04:57:32.377Z,5.30
2018-09-17T05:00:01.264Z,4.80
2018-09-17T05:02:30.139Z,5.77
2018-09-17T05:04:58.954Z,6.23
2018-09-17T05:07:27.891Z,5.40
2018-09-17T05:09:56.763Z,5.37
2018-09-17T05:12:25.627Z,5.40
2018-09-17T05:14:54.424Z,4.50
2018-09-17T05:17:23.176Z,5.47
2018-09-17T05:19:51.988Z,5.57
2018-09-17T05:22:20.730Z,4.70
2018-09-17T05:24:49.537Z,5.77
2018-09-17T05:27:18.345Z,5.80
2018-09-17T05:29:47.183Z,6.27
2018-09-17T05:32:16.039Z,5.67
2018-09-17T05:34:44.832Z,5.67
2018-09-17T05:37:14.528Z,6.13
2018-09-17T05:39:43.352Z,5.57
2018-09-17T05:42:12.166Z,6.33
2018-09-17T05:44:41.084Z,5.83
2018-09-17T05:47:09.917Z,6.53
2018-09-17T05:49:38.762Z,7.50
2018-09-17T05:52:07.576Z,6.53
2018-09-17T05:54:36.386Z,6.63
2018-09-17T05:57:05.200Z,7.20
2018-09-17T05:59:34.060Z,7.50
2018-09-17T06:02:03.059Z,6.80
2018-09-17T06:04:31.846Z,7.43
2018-09-17T06:07:00.762Z,6.70
2018-09-17T06:09:29.685Z,7.07
2018-09-17T06:11:58.532Z,7.33
2018-09-17T06:14:27.596Z,7.80
2018-09-17T06:16:56.581Z,10.47
2018-09-17T06:19:25.456Z,7.97
2018-09-17T06:21:54.276Z,7.80
2018-09-17T06:24:23.105Z,7.57
2018-09-17T06:26:51.971Z,6.73
2018-09-17T06:29:20.756Z,6.80
2018-09-17T06:31:49.596Z,7.27
2018-09-17T06:34:18.508Z,7.37
2018-09-17T06:36:47.287Z,6.97
2018-09-17T06:39:16.097Z,7.67
2018-09-17T06:41:44.895Z,8.00
2018-09-17T06:44:13.870Z,8.00
2018-09-17T06:46:42.669Z,7.87
2018-09-17T06:49:11.435Z,8.27
2018-09-17T06:51:40.236Z,8.07
2018-09-17T06:54:09.043Z,9.40
2018-09-17T06:56:38.605Z,10.37
2018-09-17T06:59:07.403Z,8.30
2018-09-17T07:01:36.183Z,8.10
2018-09-17T07:04:05.067Z,7.90
2018-09-17T07:06:33.979Z,7.63
2018-09-17T07:09:02.858Z,7.93
2018-09-17T07:11:31.786Z,8.03
2018-09-17T07:14:00.638Z,7.90
2018-09-17T07:16:29.486Z,7.80
2018-09-17T07:18:58.340Z,7.80
2018-09-17T07:21:27.205Z,8.03
2018-09-17T07:23:56.061Z,8.43
2018-09-17T07:26:24.982Z,9.43
2018-09-17T07:28:53.830Z,7.57
2018-09-17T07:31:22.712Z,8.13
2018-09-17T07:33:51.515Z,7.70
2018-09-17T07:36:20.391Z,7.57
2018-09-17T07:38:49.633Z,8.90
2018-09-17T07:41:18.704Z,7.60
2018-09-17T07:43:47.545Z,8.27
2018-09-17T07:46:16.348Z,8.90
2018-09-17T07:48:45.264Z,7.37
2018-09-17T07:51:14.061Z,8.47
2018-09-17T07:53:42.896Z,7.83
2018-09-17T07:56:11.756Z,8.37
2018-09-17T07:58:40.569Z,8.17
2018-09-17T08:01:09.523Z,8.67
2018-09-17T08:03:38.360Z,8.40
2018-09-17T08:06:07.210Z,7.73
2018-09-17T08:08:36.308Z,8.03
2018-09-17T08:11:05.211Z,9.07
2018-09-17T08:13:34.014Z,8.23
2018-09-17T08:16:02.858Z,8.57
2018-09-17T08:18:31.670Z,8.53
2018-09-17T08:21:00.726Z,8.83
2018-09-17T08:23:29.556Z,9.40
2018-09-17T08:25:58.379Z,10.67
2018-09-17T08:28:27.254Z,10.53
2018-09-17T08:30:59.000Z,11.73
2018-09-17T08:33:27.827Z,11.83
2018-09-17T08:35:56.740Z,13.53
2018-09-17T08:38:25.631Z,13.50
2018-09-17T08:40:54.483Z,11.77
2018-09-17T08:43:23.330Z,13.13
2018-09-17T08:45:52.137Z,11.67
2018-09-17T08:48:20.960Z,11.83
2018-09-17T08:50:50.081Z,13.60
2018-09-17T08:53:19.020Z,12.63
2018-09-17T08:55:51.951Z,13.47
2018-09-17T08:58:24.677Z,12.03
2018-09-17T09:01:01.151Z,11.83
2018-09-17T09:03:34.077Z,11.63
2018-09-17T09:06:08.732Z,11.43
2018-09-17T09:08:37.647Z,12.83
2018-09-17T09:11:11.804Z,11.07
2018-09-17T09:13:45.766Z,10.97
2018-09-17T09:16:14.558Z,12.87
2018-09-17T09:18:43.373Z,12.60
2018-09-17T09:21:12.183Z,12.37
2018-09-17T09:23:40.976Z,11.90
2018-09-17T09:26:09.843Z,10.73
2018-09-17T09:28:38.712Z,12.20
2018-09-17T09:31:07.676Z,11.47
2018-09-17T09:33:36.524Z,13.03
2018-09-17T09:36:05.385Z,12.40
2018-09-17T09:38:34.165Z,11.73
2018-09-17T09:41:03.003Z,11.97
2018-09-17T09:43:31.803Z,12.63
2018-09-17T09:46:00.607Z,12.40
2018-09-17T09:48:29.411Z,11.17
2018-09-17T09:50:58.252Z,11.87
2018-09-17T09:53:27.099Z,12.43
2018-09-17T09:55:55.887Z,11.83
2018-09-17T09:58:24.828Z,11.77
2018-09-17T10:00:58.698Z,12.07
2018-09-17T10:03:34.557Z,12.30
2018-09-17T10:06:03.652Z,11.43
2018-09-17T10:08:36.631Z,11.27
2018-09-17T10:11:10.515Z,10.87
2018-09-17T10:13:44.495Z,11.27
2018-09-17T10:16:19.473Z,10.43
2018-09-17T10:18:53.342Z,9.73
2018-09-17T10:21:22.539Z,10.43
2018-09-17T10:23:51.330Z,11.43
2018-09-17T10:26:20.207Z,10.13
2018-09-17T10:28:49.021Z,11.20
2018-09-17T10:31:17.835Z,10.10
2018-09-17T10:33:46.726Z,11.50
2018-09-17T10:36:15.531Z,12.67
2018-09-17T10:38:44.358Z,19.83
2018-09-17T10:41:13.215Z,20.43
2018-09-17T10:43:42.018Z,12.77
2018-09-17T10:46:10.921Z,10.00
2018-09-17T10:48:39.788Z,10.17
2018-09-17T10:51:08.559Z,14.80
2018-09-17T10:53:37.333Z,12.27
2018-09-17T10:56:06.298Z,9.73
2018-09-17T10:58:35.100Z,8.87
2018-09-17T11:01:03.987Z,7.90
2018-09-17T11:03:32.782Z,8.20
2018-09-17T11:06:01.606Z,8.03
2018-09-17T11:08:30.439Z,8.77
2018-09-17T11:10:59.264Z,9.57
2018-09-17T11:13:28.042Z,9.17
2018-09-17T11:15:56.786Z,8.67
2018-09-17T11:18:25.612Z,8.87
2018-09-17T11:20:54.400Z,12.50
2018-09-17T11:23:23.174Z,15.77
2018-09-17T11:25:52.069Z,11.47
2018-09-17T11:28:21.074Z,12.87
2018-09-17T11:30:49.867Z,14.13
2018-09-17T11:33:18.657Z,13.03
2018-09-17T11:35:47.523Z,10.20
2018-09-17T11:38:16.323Z,10.63
2018-09-17T11:40:45.148Z,10.17
2018-09-17T11:43:13.972Z,11.13
2018-09-17T11:45:42.774Z,11.30
2018-09-17T11:48:11.603Z,10.37
2018-09-17T11:50:40.556Z,11.20
2018-09-17T11:53:09.351Z,10.63
2018-09-17T11:55:38.396Z,11.20
2018-09-17T11:58:07.216Z,10.17
2018-09-17T12:00:41.324Z,11.63
2018-09-17T12:03:15.232Z,10.87
2018-09-17T12:05:49.214Z,11.77
2018-09-17T12:08:18.948Z,12.03
2018-09-17T12:10:47.690Z,13.10
2018-09-17T12:13:16.528Z,12.10
2018-09-17T12:15:45.578Z,11.97
2018-09-17T12:18:14.935Z,12.87
2018-09-17T12:20:43.746Z,12.00
2018-09-17T12:23:12.596Z,11.67
2018-09-17T12:25:41.403Z,11.43
2018-09-17T12:28:10.201Z,11.90
2018-09-17T12:30:39.079Z,10.83
2018-09-17T12:33:07.973Z,11.30
2018-09-17T12:35:36.923Z,10.77
2018-09-17T12:38:05.822Z,12.63
2018-09-17T12:40:34.679Z,12.47
2018-09-17T12:43:03.502Z,11.43
2018-09-17T12:45:32.334Z,12.10
2018-09-17T12:48:01.195Z,12.50
2018-09-17T12:50:30.018Z,15.47
2018-09-17T12:52:58.836Z,10.03
2018-09-17T12:55:27.634Z,12.13
2018-09-17T12:57:57.190Z,10.87
2018-09-17T13:00:26.080Z,11.47
2018-09-17T13:02:54.926Z,11.20
2018-09-17T13:05:23.726Z,11.83
2018-09-17T13:07:53.611Z,11.57
2018-09-17T13:10:22.486Z,9.87
2018-09-17T13:12:51.578Z,12.37
2018-09-17T13:15:20.479Z,10.83
2018-09-17T13:17:49.343Z,10.40
2018-09-17T13:20:18.115Z,9.43
2018-09-17T13:22:46.940Z,10.80
2018-09-17T13:25:15.756Z,10.87
2018-09-17T13:27:44.621Z,10.53
2018-09-17T13:30:17.666Z,10.30
2018-09-17T13:32:46.514Z,9.23
2018-09-17T13:35:15.364Z,10.63
2018-09-17T13:37:44.190Z,10.10
2018-09-17T13:40:13.017Z,11.17
2018-09-17T13:42:42.036Z,14.93
2018-09-17T13:45:10.889Z,13.83
2018-09-17T13:47:39.704Z,11.00
2018-09-17T13:50:08.529Z,12.80
2018-09-17T13:52:37.363Z,24.03
2018-09-17T13:55:06.220Z,12.33
2018-09-17T13:57:35.071Z,11.23
2018-09-17T14:00:05.815Z,10.63
2018-09-17T14:02:34.678Z,10.33
2018-09-17T14:05:03.832Z,9.90
2018-09-17T14:07:32.844Z,9.73
2018-09-17T14:10:01.699Z,11.30
2018-09-17T14:12:31.709Z,10.90
2018-09-17T14:15:00.567Z,10.30
2018-09-17T14:17:29.601Z,12.63
2018-09-17T14:19:58.409Z,16.43
2018-09-17T14:22:27.231Z,14.10
2018-09-17T14:24:56.026Z,11.67
2018-09-17T14:27:24.999Z,9.93
2018-09-17T14:29:53.878Z,9.70
2018-09-17T14:32:27.849Z,10.10
2018-09-17T14:34:56.603Z,9.17
2018-09-17T14:37:25.339Z,9.00
2018-09-17T14:39:54.152Z,9.80
2018-09-17T14:42:22.925Z,9.13
2018-09-17T14:44:51.842Z,9.73
2018-09-17T14:47:20.713Z,8.93
2018-09-17T14:49:49.559Z,9.27
2018-09-17T14:52:18.492Z,9.10
2018-09-17T14:54:47.533Z,8.30
2018-09-17T14:57:16.508Z,9.37
2018-09-17T14:59:45.364Z,9.83
2018-09-17T15:02:14.250Z,8.97
2018-09-17T15:04:43.064Z,9.23
2018-09-17T15:07:11.931Z,8.30
2018-09-17T15:09:40.740Z,8.77
2018-09-17T15:12:09.617Z,8.70
2018-09-17T15:14:38.615Z,9.60
2018-09-17T15:17:07.471Z,9.03
2018-09-17T15:19:36.242Z,9.40
2018-09-17T15:22:05.041Z,8.83
2018-09-17T15:24:34.036Z,9.17
2018-09-17T15:27:02.878Z,8.70
2018-09-17T15:29:31.692Z,8.80
2018-09-17T15:32:00.806Z,9.33
2018-09-17T15:34:29.935Z,9.20
2018-09-17T15:36:58.992Z,7.47
2018-09-17T15:39:27.827Z,6.60
2018-09-17T15:41:56.789Z,6.50
2018-09-17T15:44:25.772Z,7.10
2018-09-17T15:46:54.778Z,6.13
2018-09-17T15:49:23.766Z,6.63
2018-09-17T15:51:52.632Z,6.57
2018-09-17T15:54:21.680Z,6.70
2018-09-17T15:56:50.434Z,6.33
2018-09-17T15:59:19.254Z,5.67
2018-09-17T16:01:48.130Z,5.90
2018-09-17T16:04:16.914Z,6.50
2018-09-17T16:06:45.717Z,5.53
2018-09-17T16:09:14.569Z,6.30
2018-09-17T16:11:43.401Z,5.57
2018-09-17T16:14:12.268Z,6.77
2018-09-17T16:16:41.274Z,5.90
2018-09-17T16:19:10.062Z,5.17
2018-09-17T16:21:38.923Z,6.47
2018-09-17T16:24:07.700Z,5.90
2018-09-17T16:26:36.660Z,5.47
2018-09-17T16:29:05.851Z,6.77
2018-09-17T16:31:34.678Z,6.60
2018-09-17T16:34:03.544Z,6.17
2018-09-17T16:36:32.428Z,5.77
2018-09-17T16:39:01.215Z,5.00
2018-09-17T16:41:30.149Z,5.70
2018-09-17T16:43:59.236Z,5.53
2018-09-17T16:46:28.074Z,5.70
2018-09-17T16:48:56.859Z,5.80
2018-09-17T16:51:25.680Z,6.13
2018-09-17T16:53:54.527Z,6.10
2018-09-17T16:56:23.385Z,6.10
2018-09-17T16:58:52.334Z,5.77
2018-09-17T17:01:21.280Z,5.83
2018-09-17T17:03:50.163Z,5.63
2018-09-17T17:06:18.946Z,6.97
2018-09-17T17:08:47.721Z,6.10
2018-09-17T17:11:16.538Z,6.43
2018-09-17T17:13:45.759Z,7.23
2018-09-17T17:16:14.571Z,6.53
2018-09-17T17:18:43.643Z,8.97
2018-09-17T17:21:12.585Z,8.33
2018-09-17T17:23:41.384Z,9.03
2018-09-17T17:26:10.212Z,8.97
2018-09-17T17:28:39.349Z,8.13
2018-09-17T17:31:08.148Z,7.93
2018-09-17T17:33:36.950Z,7.10
2018-09-17T17:36:05.811Z,6.47
2018-09-17T17:38:34.554Z,7.03
2018-09-17T17:41:03.370Z,6.47
2018-09-17T17:43:32.155Z,6.93
2018-09-17T17:46:01.003Z,5.50
2018-09-17T17:48:29.966Z,6.40
2018-09-17T17:50:58.731Z,6.63
2018-09-17T17:53:27.552Z,7.00
2018-09-17T17:55:56.366Z,7.30
2018-09-17T17:58:25.139Z,7.87
2018-09-17T18:00:54.230Z,7.33
2018-09-17T18:03:23.160Z,7.23
2018-09-17T18:05:51.994Z,7.60
2018-09-17T18:08:21.202Z,7.00
2018-09-17T18:10:49.972Z,10.13
2018-09-17T18:13:18.798Z,7.73
2018-09-17T18:15:47.661Z,9.50
2018-09-17T18:18:16.503Z,7.83
2018-09-17T18:20:45.733Z,9.20
2018-09-17T18:23:14.715Z,9.13
2018-09-17T18:25:43.537Z,9.80
2018-09-17T18:28:12.369Z,10.27
2018-09-17T18:30:41.226Z,8.87
2018-09-17T18:33:10.086Z,9.93
2018-09-17T18:35:39.163Z,10.30
2018-09-17T18:38:07.993Z,9.93
2018-09-17T18:40:36.917Z,10.37
2018-09-17T18:43:05.710Z,10.10
2018-09-17T18:45:34.497Z,8.83
2018-09-17T18:48:03.388Z,9.83
2018-09-17T18:50:42.049Z,9.73
2018-09-17T18:53:11.099Z,8.90
2018-09-17T18:55:39.848Z,7.80
2018-09-17T18:58:08.610Z,7.80
2018-09-17T19:00:37.402Z,9.53
2018-09-17T19:03:06.495Z,8.20
2018-09-17T19:05:35.519Z,8.97
2018-09-17T19:08:04.327Z,9.27
2018-09-17T19:10:33.226Z,8.60
2018-09-17T19:13:02.017Z,8.53
2018-09-17T19:15:35.990Z,9.60
2018-09-17T19:18:09.903Z,9.47
2018-09-17T19:20:39.213Z,9.67
2018-09-17T19:23:13.231Z,10.50
2018-09-17T19:25:42.094Z,9.33
2018-09-17T19:28:16.478Z,10.23
2018-09-17T19:30:46.800Z,10.67
2018-09-17T19:33:15.591Z,10.13
2018-09-17T19:35:44.404Z,10.07
2018-09-17T19:38:18.716Z,10.93
2018-09-17T19:40:47.689Z,10.27
2018-09-17T19:43:16.470Z,10.50
2018-09-17T19:45:50.556Z,11.57
2018-09-17T19:48:19.589Z,10.70
2018-09-17T19:51:53.435Z,10.93
2018-09-17T19:54:22.355Z,11.73
2018-09-17T19:56:51.287Z,13.03
2018-09-17T19:59:25.174Z,12.20
2018-09-17T20:01:53.988Z,11.97
2018-09-17T20:04:28.086Z,12.90
2018-09-17T20:06:56.908Z,11.87
2018-09-17T20:09:25.768Z,12.97
2018-09-17T20:11:54.548Z,12.60
2018-09-17T20:14:23.333Z,11.67
2018-09-17T20:16:52.170Z,11.97
2018-09-17T20:19:20.973Z,10.93
2018-09-17T20:21:50.108Z,12.33
2018-09-17T20:24:18.878Z,10.73
2018-09-17T20:26:47.682Z,10.83
2018-09-17T20:29:16.464Z,11.07
2018-09-17T20:31:45.584Z,10.80
2018-09-17T20:34:14.563Z,10.10
2018-09-17T20:36:43.354Z,9.70
2018-09-17T20:39:13.092Z,10.80
2018-09-17T20:41:41.852Z,10.00
2018-09-17T20:44:10.713Z,9.67
2018-09-17T20:46:39.543Z,11.47
2018-09-17T20:49:08.383Z,11.50
2018-09-17T20:51:37.292Z,12.10
2018-09-17T20:54:06.085Z,13.23
2018-09-17T20:56:34.898Z,12.77
2018-09-17T20:59:03.698Z,12.27
2018-09-17T21:01:32.650Z,12.50
2018-09-17T21:04:01.576Z,12.53
2018-09-17T21:06:30.346Z,11.87
2018-09-17T21:08:59.146Z,11.70
2018-09-17T21:11:27.946Z,11.23
2018-09-17T21:13:56.787Z,11.37
2018-09-17T21:16:26.596Z,10.63
2018-09-17T21:18:55.534Z,10.17
2018-09-17T21:21:24.541Z,10.20
2018-09-17T21:23:53.315Z,10.57
2018-09-17T21:26:22.113Z,10.57
2018-09-17T21:28:50.916Z,11.03
2018-09-17T21:31:19.961Z,10.17
2018-09-17T21:33:49.090Z,10.10
2018-09-17T21:36:17.919Z,11.70
2018-09-17T21:38:46.725Z,10.30
2018-09-17T21:41:15.496Z,10.30
2018-09-17T21:43:44.303Z,10.87
2018-09-17T21:46:13.215Z,9.53
2018-09-17T21:48:42.143Z,10.70
2018-09-17T21:51:10.958Z,9.63
2018-09-17T21:53:39.838Z,9.43
2018-09-17T21:56:08.648Z,10.17
2018-09-17T21:58:37.535Z,10.10
2018-09-17T22:01:06.579Z,10.17
2018-09-17T22:03:36.122Z,10.10
2018-09-17T22:06:04.921Z,9.23
2018-09-17T22:08:33.724Z,9.83
2018-09-17T22:11:02.568Z,9.50
2018-09-17T22:13:31.470Z,8.80
2018-09-17T22:16:00.453Z,9.30
2018-09-17T22:18:29.219Z,8.40
2018-09-17T22:20:58.079Z,8.63
2018-09-17T22:23:26.849Z,9.43
2018-09-17T22:25:55.627Z,8.17
2018-09-17T22:28:24.476Z,8.40
2018-09-17T22:30:53.280Z,8.40
2018-09-17T22:33:22.179Z,8.20
2018-09-17T22:35:50.961Z,7.87
2018-09-17T22:38:19.739Z,7.87
2018-09-17T22:40:48.514Z,7.97
2018-09-17T22:43:17.302Z,8.43
2018-09-17T22:45:46.095Z,8.53
2018-09-17T22:48:14.867Z,8.03
2018-09-17T22:50:43.653Z,8.00
2018-09-17T22:53:12.567Z,7.13
2018-09-17T22:55:41.338Z,8.03
2018-09-17T22:58:10.163Z,7.37
2018-09-17T23:00:39.016Z,7.83
2018-09-17T23:03:07.824Z,6.97
2018-09-17T23:05:36.737Z,7.70
2018-09-17T23:08:05.899Z,7.47
2018-09-17T23:10:34.747Z,7.20
2018-09-17T23:13:03.506Z,7.27
2018-09-17T23:15:32.283Z,7.03
2018-09-17T23:18:01.083Z,7.50
2018-09-17T23:20:29.917Z,6.93
2018-09-17T23:22:58.828Z,6.67
2018-09-17T23:25:27.635Z,7.10
2018-09-17T23:27:56.466Z,7.03
2018-09-17T23:30:25.343Z,6.63
2018-09-17T23:32:54.180Z,6.37
2018-09-17T23:35:23.004Z,6.73
2018-09-17T23:37:51.784Z,6.23
2018-09-17T23:40:20.628Z,6.77
2018-09-17T23:42:49.403Z,6.40
2018-09-17T23:45:18.201Z,7.40
2018-09-17T23:47:47.024Z,6.87
2018-09-17T23:50:15.805Z,6.33
2018-09-17T23:52:44.642Z,6.87
2018-09-17T23:55:13.420Z,6.03
2018-09-17T23:57:42.195Z,6.50
